Portada
METAR-TAF:

METAR-TAF

Aeropuertos :

Nimes, Francia

latitud: 43-45N, longitud: 004-25E, altitud: 94 m

Observación

El informe se hizo hace 39 minutos, a las 04:00 UTC
Viento 4 kt del norte
Temperatura 20°C
Humedad 88%
Presión 1012 hPa
Visibilidad 10 km o más

METAR: LFTW 300400Z AUTO 35004KT 9999 ///TCU 20/18 Q1012 BECMG NSC

Hora: 06:39 (04:39 UTC)

Pronóstico

El informe se hizo hace 2 horas y 39 minutos, a las 02:00 UTC
Pronóstico válido del 30 a las 03 UTC al 31 a las 03 UTC
Viento 3 kt con dirección variable
Visibilidad 10 km o más
sin nubes por debajo de 1500 m y sin presencia de cumulonimbus.
Evolucionando progresivamente
del 30 a las 10 UTC al 30 a las 12 UTC
Viento 10 kt del sur-suroeste
Evolucionando progresivamente
del 30 a las 19 UTC al 30 a las 21 UTC
Viento 14 kt del norte

TAF: LFTW 300200Z 3003/3103 VRB03KT CAVOK BECMG 3010/3012 20010KT BECMG 3019/3021 01014KT

Observaciones y pronósticos meteorológicos de más de 4000 aeropuertos (mensajes METAR y TAF).

Los puntos amarillos y rojos representan las estaciones disponibles.

Ponga el ratón en el punto deseado para ver el nombre de la estación.

Haga clic para ver las observaciones y los pronósticos meteorológicos.

Para cambiar el mapa : haga clic en los botones verdes con una cruz de color negro para hacer un zoom, en el botón verde con un guión para alejar o en las flechas verdes para mapas adyacentes.


METAR-TAF: